sensor_id;sensor_type;location;lat;lon;timestamp;P1;durP1;ratioP1;P2;durP2;ratioP2
7585;SDS011;12459;42.646;23.292;2023-08-01T00:08:45;25.77;;;24.53;;
7585;SDS011;12459;42.646;23.292;2023-08-01T00:23:47;29.33;;;27.93;;
7585;SDS011;12459;42.646;23.292;2023-08-01T00:38:49;27.90;;;26.60;;
7585;SDS011;12459;42.646;23.292;2023-08-01T00:53:51;25.77;;;24.57;;
7585;SDS011;12459;42.646;23.292;2023-08-01T01:08:52;26.03;;;24.83;;
7585;SDS011;12459;42.646;23.292;2023-08-01T01:23:55;27.67;;;26.37;;
7585;SDS011;12459;42.646;23.292;2023-08-01T01:38:58;26.27;;;25.03;;
7585;SDS011;12459;42.646;23.292;2023-08-01T01:54:00;28.17;;;26.87;;
7585;SDS011;12459;42.646;23.292;2023-08-01T02:09:02;26.10;;;24.87;;
7585;SDS011;12459;42.646;23.292;2023-08-01T02:24:05;28.33;;;27.03;;
7585;SDS011;12459;42.646;23.292;2023-08-01T02:39:07;26.90;;;25.60;;
7585;SDS011;12459;42.646;23.292;2023-08-01T02:54:09;24.87;;;23.67;;
7585;SDS011;12459;42.646;23.292;2023-08-01T03:09:10;24.07;;;22.93;;
7585;SDS011;12459;42.646;23.292;2023-08-01T03:24:12;25.50;;;24.30;;
7585;SDS011;12459;42.646;23.292;2023-08-01T03:39:14;22.70;;;21.60;;
7585;SDS011;12459;42.646;23.292;2023-08-01T03:54:16;24.47;;;23.30;;
7585;SDS011;12459;42.646;23.292;2023-08-01T04:09:17;24.67;;;23.47;;
7585;SDS011;12459;42.646;23.292;2023-08-01T04:24:19;27.60;;;26.30;;
7585;SDS011;12459;42.646;23.292;2023-08-01T04:39:21;25.53;;;24.33;;
7585;SDS011;12459;42.646;23.292;2023-08-01T04:54:23;24.33;;;23.13;;
7585;SDS011;12459;42.646;23.292;2023-08-01T05:09:24;32.30;;;30.80;;
7585;SDS011;12459;42.646;23.292;2023-08-01T05:24:26;26.47;;;25.23;;
7585;SDS011;12459;42.646;23.292;2023-08-01T05:39:28;30.70;;;29.30;;
7585;SDS011;12459;42.646;23.292;2023-08-01T05:54:30;35.00;;;33.40;;
7585;SDS011;12459;42.646;23.292;2023-08-01T06:09:31;32.53;;;31.03;;
7585;SDS011;12459;42.646;23.292;2023-08-01T06:24:33;31.53;;;30.03;;
7585;SDS011;12459;42.646;23.292;2023-08-01T06:39:35;36.20;;;34.50;;
7585;SDS011;12459;42.646;23.292;2023-08-01T06:54:37;35.03;;;33.40;;
7585;SDS011;12459;42.646;23.292;2023-08-01T07:09:40;34.17;;;32.57;;
7585;SDS011;12459;42.646;23.292;2023-08-01T07:24:42;36.90;;;35.20;;
7585;SDS011;12459;42.646;23.292;2023-08-01T07:39:43;34.80;;;33.20;;
7585;SDS011;12459;42.646;23.292;2023-08-01T07:54:45;36.90;;;35.20;;
7585;SDS011;12459;42.646;23.292;2023-08-01T08:09:47;36.90;;;35.20;;
7585;SDS011;12459;42.646;23.292;2023-08-01T08:24:48;37.60;;;35.90;;
7585;SDS011;12459;42.646;23.292;2023-08-01T08:39:50;37.47;;;35.77;;
7585;SDS011;12459;42.646;23.292;2023-08-01T08:54:52;37.40;;;35.70;;
7585;SDS011;12459;42.646;23.292;2023-08-01T09:09:54;37.10;;;35.40;;
7585;SDS011;12459;42.646;23.292;2023-08-01T09:24:55;39.67;;;37.87;;
7585;SDS011;12459;42.646;23.292;2023-08-01T09:39:57;38.47;;;36.67;;
7585;SDS011;12459;42.646;23.292;2023-08-01T09:54:59;42.40;;;40.50;;
7585;SDS011;12459;42.646;23.292;2023-08-01T10:10:01;41.23;;;39.33;;
7585;SDS011;12459;42.646;23.292;2023-08-01T10:25:03;40.07;;;38.27;;
7585;SDS011;12459;42.646;23.292;2023-08-01T10:40:06;41.40;;;39.50;;
7585;SDS011;12459;42.646;23.292;2023-08-01T10:55:09;44.20;;;42.20;;
7585;SDS011;12459;42.646;23.292;2023-08-01T11:10:12;42.43;;;40.53;;
7585;SDS011;12459;42.646;23.292;2023-08-01T11:25:14;43.57;;;41.57;;
7585;SDS011;12459;42.646;23.292;2023-08-01T11:40:16;45.10;;;43.07;;
7585;SDS011;12459;42.646;23.292;2023-08-01T11:55:20;48.23;;;46.03;;
7585;SDS011;12459;42.646;23.292;2023-08-01T12:10:23;42.13;;;40.20;;
7585;SDS011;12459;42.646;23.292;2023-08-01T12:25:25;46.83;;;44.73;;
7585;SDS011;12459;42.646;23.292;2023-08-01T12:40:27;42.53;;;40.60;;
7585;SDS011;12459;42.646;23.292;2023-08-01T12:55:28;47.50;;;45.33;;
7585;SDS011;12459;42.646;23.292;2023-08-01T13:10:31;44.50;;;42.50;;
7585;SDS011;12459;42.646;23.292;2023-08-01T13:25:36;42.77;;;40.80;;
7585;SDS011;12459;42.646;23.292;2023-08-01T13:40:38;48.77;;;46.57;;
7585;SDS011;12459;42.646;23.292;2023-08-01T13:55:40;50.60;;;48.30;;
7585;SDS011;12459;42.646;23.292;2023-08-01T14:10:42;49.00;;;46.80;;
7585;SDS011;12459;42.646;23.292;2023-08-01T14:25:44;50.77;;;48.47;;
7585;SDS011;12459;42.646;23.292;2023-08-01T14:40:45;46.70;;;44.60;;
7585;SDS011;12459;42.646;23.292;2023-08-01T14:56:07;49.87;;;47.60;;
7585;SDS011;12459;42.646;23.292;2023-08-01T15:11:09;47.37;;;45.20;;
7585;SDS011;12459;42.646;23.292;2023-08-01T15:26:11;47.00;;;44.87;;
7585;SDS011;12459;42.646;23.292;2023-08-01T15:41:13;45.07;;;43.03;;
7585;SDS011;12459;42.646;23.292;2023-08-01T15:56:14;46.77;;;44.67;;
7585;SDS011;12459;42.646;23.292;2023-08-01T16:11:16;43.60;;;41.60;;
7585;SDS011;12459;42.646;23.292;2023-08-01T16:26:18;42.13;;;40.23;;
7585;SDS011;12459;42.646;23.292;2023-08-01T16:41:20;47.57;;;45.37;;
7585;SDS011;12459;42.646;23.292;2023-08-01T16:56:23;41.47;;;39.57;;
7585;SDS011;12459;42.646;23.292;2023-08-01T17:11:25;40.23;;;38.40;;
7585;SDS011;12459;42.646;23.292;2023-08-01T17:26:27;41.97;;;40.07;;
7585;SDS011;12459;42.646;23.292;2023-08-01T17:41:29;44.30;;;42.30;;
7585;SDS011;12459;42.646;23.292;2023-08-01T17:56:32;43.27;;;41.27;;
7585;SDS011;12459;42.646;23.292;2023-08-01T18:11:33;41.83;;;39.93;;
7585;SDS011;12459;42.646;23.292;2023-08-01T18:26:35;40.97;;;39.10;;
7585;SDS011;12459;42.646;23.292;2023-08-01T18:41:38;42.33;;;40.43;;
7585;SDS011;12459;42.646;23.292;2023-08-01T18:56:40;41.73;;;39.83;;
7585;SDS011;12459;42.646;23.292;2023-08-01T19:11:42;44.97;;;42.90;;
7585;SDS011;12459;42.646;23.292;2023-08-01T19:26:45;41.10;;;39.20;;
7585;SDS011;12459;42.646;23.292;2023-08-01T19:41:46;37.37;;;35.67;;
7585;SDS011;12459;42.646;23.292;2023-08-01T19:56:48;35.93;;;34.27;;
7585;SDS011;12459;42.646;23.292;2023-08-01T20:11:51;36.87;;;35.17;;
7585;SDS011;12459;42.646;23.292;2023-08-01T20:26:53;36.73;;;35.03;;
7585;SDS011;12459;42.646;23.292;2023-08-01T20:41:54;33.87;;;32.27;;
7585;SDS011;12459;42.646;23.292;2023-08-01T20:56:56;36.37;;;34.70;;
7585;SDS011;12459;42.646;23.292;2023-08-01T21:11:58;32.30;;;30.80;;
7585;SDS011;12459;42.646;23.292;2023-08-01T21:27:00;33.00;;;31.50;;
7585;SDS011;12459;42.646;23.292;2023-08-01T21:42:02;31.53;;;30.03;;
7585;SDS011;12459;42.646;23.292;2023-08-01T21:57:04;32.43;;;30.93;;
7585;SDS011;12459;42.646;23.292;2023-08-01T22:12:06;28.93;;;27.57;;
7585;SDS011;12459;42.646;23.292;2023-08-01T22:27:08;28.17;;;26.87;;
7585;SDS011;12459;42.646;23.292;2023-08-01T22:42:09;31.60;;;30.13;;
7585;SDS011;12459;42.646;23.292;2023-08-01T22:57:11;30.30;;;28.90;;
7585;SDS011;12459;42.646;23.292;2023-08-01T23:12:13;28.97;;;27.57;;
7585;SDS011;12459;42.646;23.292;2023-08-01T23:27:14;29.00;;;27.63;;
7585;SDS011;12459;42.646;23.292;2023-08-01T23:42:16;28.40;;;27.10;;
7585;SDS011;12459;42.646;23.292;2023-08-01T23:57:18;28.97;;;27.57;;
